Pagrindinis puslapis
METAR-TAF:

METAR-TAF

Oro uostai :

Jämsä, Suomija

platuma: 61-51N, ilguma: 024-48E, Aukštis: 143 m

Dabartinis oras

Ataskaita buvo paskelbta 36 minutes, ne 05:20 UTC
Vėjas 1 kt nuo kintamojo kryptimis
Temperatūra 15°C
Drėgmė 44%
Slėgis 1026 hPa
Matomumas 10 km arba daugiau
nėra debesų žemiau 1500 m ir nėra kamuolinių lietaus debesų

METAR: EFHA 220520Z VRB01KT CAVOK 15/03 Q1026

Laikas: 08:56 (05:56 UTC)

Prognozė

Ataskaita buvo paskelbta 3 valandos ir 29 minutes, ne 02:27 UTC
Prognozė galioja nuo 22 metu 03 UTC su 22 metu 12 UTC
Vėjas 2 kt nuo kintamojo kryptimis
Matomumas 10 km arba daugiau
nėra debesų žemiau 1500 m ir nėra kamuolinių lietaus debesų

TAF: EFHA 220227Z 2203/2212 VRB02KT CAVOK

Orai ataskaitas ir orų prognozės (METAR, TAF).

turimą stotys yra geltonos ir raudonos taškus žemėlapyje.

Perkelti pele per norėdami pamatyti stoties vardą.

Tada spustelėkite, norėdami matyti oro stebėjimo ir prognozės.

Norėdami pakeisti žemėlapį: spustelėkite ant žalios mygtukų su juodo kryžiaus žemyn,; žalią mygtuką su brūkšneliu, jei norite nutolinti; arba žalių rodyklių gretimoms žemėlapius.


METAR-TAF: